Terminal Aerodrome Forecast
Issued by NWS Amarillo, TX

Home | Current Version | Previous Version | Text Only | Print | Product List | Glossary On
Versions: 1 2 3 4 5 6 7 8 9 10 11 12 13
000
FTUS44 KAMA 301100
TAFGUY
TAF
KGUY 301135Z 3012/3112 17005KT P6SM BKN120
     FM301700 18014KT P6SM OVC050
     FM302200 18014KT P6SM OVC025
     FM310100 18012KT 5SM -RASN BR OVC010=

USA.gov is the U.S. government's official web portal to all federal, state and local government web resources and services.